sensor_id;sensor_type;location;lat;lon;timestamp;pressure;altitude;pressure_sealevel;temperature;humidity
72294;BME280;60632;49.236;8.398;2023-02-04T00:02:20;101964.97;;;9.97;72.43
72294;BME280;60632;49.236;8.398;2023-02-04T00:05:20;101958.13;;;10.01;72.27
72294;BME280;60632;49.236;8.398;2023-02-04T00:08:21;101961.22;;;9.98;72.36
72294;BME280;60632;49.236;8.398;2023-02-04T00:11:21;101968.25;;;9.92;72.60
72294;BME280;60632;49.236;8.398;2023-02-04T00:14:21;101968.81;;;9.88;72.65
72294;BME280;60632;49.236;8.398;2023-02-04T00:17:22;101973.00;;;9.90;72.61
72294;BME280;60632;49.236;8.398;2023-02-04T00:20:22;101983.47;;;9.93;72.60
72294;BME280;60632;49.236;8.398;2023-02-04T00:23:22;101981.78;;;9.92;72.51
72294;BME280;60632;49.236;8.398;2023-02-04T00:26:23;101977.97;;;9.87;72.78
72294;BME280;60632;49.236;8.398;2023-02-04T00:29:23;101993.75;;;9.83;72.89
72294;BME280;60632;49.236;8.398;2023-02-04T00:32:23;101993.75;;;9.83;72.91
72294;BME280;60632;49.236;8.398;2023-02-04T00:35:24;101996.47;;;9.83;72.93
72294;BME280;60632;49.236;8.398;2023-02-04T00:38:24;102004.59;;;9.83;72.91
72294;BME280;60632;49.236;8.398;2023-02-04T00:41:24;102002.53;;;9.85;72.90
72294;BME280;60632;49.236;8.398;2023-02-04T00:44:25;102007.56;;;9.88;72.74
72294;BME280;60632;49.236;8.398;2023-02-04T00:47:25;102009.63;;;9.86;72.81
72294;BME280;60632;49.236;8.398;2023-02-04T00:50:26;102005.41;;;9.84;72.84
72294;BME280;60632;49.236;8.398;2023-02-04T00:53:26;102008.97;;;9.84;73.00
72294;BME280;60632;49.236;8.398;2023-02-04T00:56:26;102014.00;;;9.87;72.84
72294;BME280;60632;49.236;8.398;2023-02-04T00:59:27;102010.66;;;9.85;72.72
72294;BME280;60632;49.236;8.398;2023-02-04T01:02:27;102016.72;;;9.87;72.82
72294;BME280;60632;49.236;8.398;2023-02-04T01:05:27;102021.50;;;9.85;72.77
72294;BME280;60632;49.236;8.398;2023-02-04T01:08:27;102024.38;;;9.84;72.88
72294;BME280;60632;49.236;8.398;2023-02-04T01:11:28;102028.28;;;9.81;72.87
72294;BME280;60632;49.236;8.398;2023-02-04T01:14:29;102017.56;;;9.73;73.38
72294;BME280;60632;49.236;8.398;2023-02-04T01:17:29;102022.78;;;9.74;73.09
72294;BME280;60632;49.236;8.398;2023-02-04T01:20:29;102018.59;;;9.72;73.20
72294;BME280;60632;49.236;8.398;2023-02-04T01:23:30;102016.91;;;9.71;73.21
72294;BME280;60632;49.236;8.398;2023-02-04T01:26:30;102020.28;;;9.73;73.15
72294;BME280;60632;49.236;8.398;2023-02-04T01:29:30;102023.16;;;9.71;73.10
72294;BME280;60632;49.236;8.398;2023-02-04T01:32:31;102030.06;;;9.74;73.28
72294;BME280;60632;49.236;8.398;2023-02-04T01:35:31;102038.19;;;9.74;73.15
72294;BME280;60632;49.236;8.398;2023-02-04T01:38:31;102046.31;;;9.74;73.19
72294;BME280;60632;49.236;8.398;2023-02-04T01:41:32;102035.97;;;9.63;73.30
72294;BME280;60632;49.236;8.398;2023-02-04T01:44:32;102031.56;;;9.62;73.38
72294;BME280;60632;49.236;8.398;2023-02-04T01:47:33;102048.84;;;9.61;73.41
72294;BME280;60632;49.236;8.398;2023-02-04T01:50:34;102047.81;;;9.62;73.71
72294;BME280;60632;49.236;8.398;2023-02-04T01:53:34;102051.66;;;9.67;73.21
72294;BME280;60632;49.236;8.398;2023-02-04T01:56:34;102048.84;;;9.61;73.29
72294;BME280;60632;49.236;8.398;2023-02-04T01:59:35;102041.16;;;9.49;73.68
72294;BME280;60632;49.236;8.398;2023-02-04T02:05:44;102033.22;;;9.33;74.09
72294;BME280;60632;49.236;8.398;2023-02-04T02:08:45;102044.78;;;9.27;74.26
72294;BME280;60632;49.236;8.398;2023-02-04T02:11:46;102044.50;;;9.22;74.11
72294;BME280;60632;49.236;8.398;2023-02-04T02:14:46;102044.03;;;9.18;74.33
72294;BME280;60632;49.236;8.398;2023-02-04T02:17:46;102048.13;;;9.14;74.37
72294;BME280;60632;49.236;8.398;2023-02-04T02:20:47;102048.00;;;9.07;74.49
72294;BME280;60632;49.236;8.398;2023-02-04T02:23:48;102063.28;;;9.00;74.41
72294;BME280;60632;49.236;8.398;2023-02-04T02:26:49;102058.22;;;8.97;74.49
72294;BME280;60632;49.236;8.398;2023-02-04T02:29:50;102060.28;;;8.95;74.52
72294;BME280;60632;49.236;8.398;2023-02-04T02:32:50;102061.84;;;8.90;74.60
72294;BME280;60632;49.236;8.398;2023-02-04T02:35:51;102058.69;;;8.86;74.71
72294;BME280;60632;49.236;8.398;2023-02-04T02:38:51;102070.88;;;8.82;74.68
72294;BME280;60632;49.236;8.398;2023-02-04T02:41:51;102074.94;;;8.78;74.72
72294;BME280;60632;49.236;8.398;2023-02-04T02:44:52;102083.88;;;8.78;74.27
72294;BME280;60632;49.236;8.398;2023-02-04T02:47:53;102078.63;;;8.85;74.32
72294;BME280;60632;49.236;8.398;2023-02-04T02:50:55;102075.94;;;8.85;74.42
72294;BME280;60632;49.236;8.398;2023-02-04T02:53:55;102072.19;;;8.86;74.16
72294;BME280;60632;49.236;8.398;2023-02-04T02:56:57;102071.47;;;8.92;74.20
72294;BME280;60632;49.236;8.398;2023-02-04T02:59:57;102079.88;;;8.97;74.03
72294;BME280;60632;49.236;8.398;2023-02-04T03:03:04;102095.13;;;8.90;73.95
72294;BME280;60632;49.236;8.398;2023-02-04T03:06:06;102092.50;;;8.82;74.26
72294;BME280;60632;49.236;8.398;2023-02-04T03:09:08;102087.63;;;8.77;74.23
72294;BME280;60632;49.236;8.398;2023-02-04T03:12:09;102094.91;;;8.77;74.34
72294;BME280;60632;49.236;8.398;2023-02-04T03:15:09;102093.69;;;8.79;74.30
72294;BME280;60632;49.236;8.398;2023-02-04T03:18:10;102096.56;;;8.78;74.20
72294;BME280;60632;49.236;8.398;2023-02-04T03:21:10;102100.09;;;8.78;74.23
72294;BME280;60632;49.236;8.398;2023-02-04T03:24:11;102109.44;;;8.76;74.27
72294;BME280;60632;49.236;8.398;2023-02-04T03:27:12;102116.72;;;8.75;74.15
72294;BME280;60632;49.236;8.398;2023-02-04T03:30:13;102125.66;;;8.76;74.19
72294;BME280;60632;49.236;8.398;2023-02-04T03:33:13;102123.31;;;8.73;74.38
72294;BME280;60632;49.236;8.398;2023-02-04T03:36:13;102118.91;;;8.72;74.20
72294;BME280;60632;49.236;8.398;2023-02-04T03:39:14;102130.06;;;8.69;74.27
72294;BME280;60632;49.236;8.398;2023-02-04T03:42:14;102124.31;;;8.72;74.25
72294;BME280;60632;49.236;8.398;2023-02-04T03:45:14;102125.66;;;8.76;73.97
72294;BME280;60632;49.236;8.398;2023-02-04T03:48:15;102134.06;;;8.81;73.83
72294;BME280;60632;49.236;8.398;2023-02-04T03:51:15;102137.09;;;8.86;73.75
72294;BME280;60632;49.236;8.398;2023-02-04T03:54:15;102135.03;;;8.88;73.68
72294;BME280;60632;49.236;8.398;2023-02-04T03:57:16;102142.13;;;8.89;73.75
72294;BME280;60632;49.236;8.398;2023-02-04T04:00:16;102138.59;;;8.88;73.67
72294;BME280;60632;49.236;8.398;2023-02-04T04:03:16;102142.97;;;8.90;73.63
72294;BME280;60632;49.236;8.398;2023-02-04T04:06:17;102150.03;;;8.91;73.73
72294;BME280;60632;49.236;8.398;2023-02-04T04:09:17;102147.81;;;8.94;73.50
72294;BME280;60632;49.236;8.398;2023-02-04T04:12:17;102140.06;;;8.91;73.59
72294;BME280;60632;49.236;8.398;2023-02-04T04:15:18;102121.69;;;8.86;73.83
72294;BME280;60632;49.236;8.398;2023-02-04T04:18:18;102125.31;;;8.79;73.90
72294;BME280;60632;49.236;8.398;2023-02-04T04:21:18;102127.69;;;8.74;73.95
72294;BME280;60632;49.236;8.398;2023-02-04T04:24:19;102137.34;;;8.68;73.96
72294;BME280;60632;49.236;8.398;2023-02-04T04:27:19;102137.88;;;8.63;73.97
72294;BME280;60632;49.236;8.398;2023-02-04T04:30:19;102137.19;;;8.70;73.85
72294;BME280;60632;49.236;8.398;2023-02-04T04:33:20;102140.88;;;8.69;73.85
72294;BME280;60632;49.236;8.398;2023-02-04T04:36:20;102144.63;;;8.68;73.84
72294;BME280;60632;49.236;8.398;2023-02-04T04:39:21;102145.50;;;8.60;73.99
72294;BME280;60632;49.236;8.398;2023-02-04T04:42:21;102145.31;;;8.61;73.94
72294;BME280;60632;49.236;8.398;2023-02-04T04:45:21;102155.78;;;8.64;73.77
72294;BME280;60632;49.236;8.398;2023-02-04T04:48:21;102159.16;;;8.67;73.79
72294;BME280;60632;49.236;8.398;2023-02-04T04:51:22;102147.38;;;8.59;73.93
72294;BME280;60632;49.236;8.398;2023-02-04T04:54:23;102153.78;;;8.58;74.00
72294;BME280;60632;49.236;8.398;2023-02-04T04:57:23;102155.78;;;8.64;74.01
72294;BME280;60632;49.236;8.398;2023-02-04T05:00:23;102161.66;;;8.68;73.77
72294;BME280;60632;49.236;8.398;2023-02-04T05:03:24;102164.22;;;8.70;73.80
72294;BME280;60632;49.236;8.398;2023-02-04T05:06:27;102160.47;;;8.71;73.72
72294;BME280;60632;49.236;8.398;2023-02-04T05:09:27;102160.13;;;8.74;73.77
72294;BME280;60632;49.236;8.398;2023-02-04T05:12:27;102161.81;;;8.75;73.72
72294;BME280;60632;49.236;8.398;2023-02-04T05:15:28;102173.97;;;8.79;73.54
72294;BME280;60632;49.236;8.398;2023-02-04T05:18:28;102171.91;;;8.81;73.50
72294;BME280;60632;49.236;8.398;2023-02-04T05:21:28;102173.47;;;8.75;73.63
72294;BME280;60632;49.236;8.398;2023-02-04T05:24:29;102165.38;;;8.75;73.67
72294;BME280;60632;49.236;8.398;2023-02-04T05:27:29;102169.63;;;8.70;73.71
72294;BME280;60632;49.236;8.398;2023-02-04T05:30:29;102169.47;;;8.63;74.12
72294;BME280;60632;49.236;8.398;2023-02-04T05:33:30;102164.25;;;8.61;73.86
72294;BME280;60632;49.236;8.398;2023-02-04T05:36:30;102172.34;;;8.61;73.98
72294;BME280;60632;49.236;8.398;2023-02-04T05:39:30;102190.28;;;8.62;73.81
72294;BME280;60632;49.236;8.398;2023-02-04T05:42:31;102197.28;;;8.72;73.71
72294;BME280;60632;49.236;8.398;2023-02-04T05:45:31;102187.47;;;8.79;73.49
72294;BME280;60632;49.236;8.398;2023-02-04T05:48:31;102193.19;;;8.84;73.38
72294;BME280;60632;49.236;8.398;2023-02-04T05:51:31;102197.94;;;8.82;73.29
72294;BME280;60632;49.236;8.398;2023-02-04T05:54:32;102201.00;;;8.79;73.62
72294;BME280;60632;49.236;8.398;2023-02-04T05:57:32;102194.91;;;8.77;73.67
72294;BME280;60632;49.236;8.398;2023-02-04T06:00:32;102202.69;;;8.80;73.46
72294;BME280;60632;49.236;8.398;2023-02-04T06:03:33;102211.59;;;8.88;73.36
72294;BME280;60632;49.236;8.398;2023-02-04T06:06:33;102221.16;;;8.99;73.09
72294;BME280;60632;49.236;8.398;2023-02-04T06:09:33;102223.16;;;9.05;72.86
72294;BME280;60632;49.236;8.398;2023-02-04T06:12:34;102229.41;;;9.06;72.86
72294;BME280;60632;49.236;8.398;2023-02-04T06:15:34;102226.72;;;8.98;73.12
72294;BME280;60632;49.236;8.398;2023-02-04T06:18:34;102232.22;;;8.81;73.37
72294;BME280;60632;49.236;8.398;2023-02-04T06:21:34;102246.31;;;8.69;73.86
72294;BME280;60632;49.236;8.398;2023-02-04T06:24:35;102255.44;;;8.68;73.74
72294;BME280;60632;49.236;8.398;2023-02-04T06:27:35;102257.09;;;8.77;73.70
72294;BME280;60632;49.236;8.398;2023-02-04T06:30:36;102254.72;;;8.82;73.40
72294;BME280;60632;49.236;8.398;2023-02-04T06:33:36;102257.06;;;8.85;73.38
72294;BME280;60632;49.236;8.398;2023-02-04T06:36:36;102259.91;;;8.92;73.20
72294;BME280;60632;49.236;8.398;2023-02-04T06:39:37;102256.34;;;8.91;73.22
72294;BME280;60632;49.236;8.398;2023-02-04T06:42:37;102254.19;;;8.86;73.26
72294;BME280;60632;49.236;8.398;2023-02-04T06:45:38;102261.81;;;8.83;73.40
72294;BME280;60632;49.236;8.398;2023-02-04T06:48:38;102267.88;;;8.85;73.20
72294;BME280;60632;49.236;8.398;2023-02-04T06:51:38;102269.03;;;8.91;73.08
72294;BME280;60632;49.236;8.398;2023-02-04T06:54:39;102264.09;;;8.94;73.09
72294;BME280;60632;49.236;8.398;2023-02-04T06:57:39;102264.09;;;8.94;73.06
72294;BME280;60632;49.236;8.398;2023-02-04T07:00:39;102275.94;;;8.93;73.13
72294;BME280;60632;49.236;8.398;2023-02-04T07:03:40;102272.88;;;8.96;73.05
72294;BME280;60632;49.236;8.398;2023-02-04T07:06:40;102267.13;;;8.99;72.81
72294;BME280;60632;49.236;8.398;2023-02-04T07:09:40;102272.88;;;9.04;72.69
72294;BME280;60632;49.236;8.398;2023-02-04T07:12:41;102288.06;;;9.05;72.85
72294;BME280;60632;49.236;8.398;2023-02-04T07:15:41;102297.69;;;9.08;72.82
72294;BME280;60632;49.236;8.398;2023-02-04T07:18:42;102297.16;;;9.13;72.68
72294;BME280;60632;49.236;8.398;2023-02-04T07:21:42;102303.25;;;9.15;72.62
72294;BME280;60632;49.236;8.398;2023-02-04T07:24:42;102310.31;;;9.16;72.53
72294;BME280;60632;49.236;8.398;2023-02-04T07:27:43;102311.34;;;9.15;72.66
72294;BME280;60632;49.236;8.398;2023-02-04T07:30:43;102315.75;;;9.16;72.57
72294;BME280;60632;49.236;8.398;2023-02-04T07:33:44;102324.53;;;9.18;72.61
72294;BME280;60632;49.236;8.398;2023-02-04T07:36:44;102327.03;;;9.19;72.52
72294;BME280;60632;49.236;8.398;2023-02-04T07:39:44;102322.13;;;9.23;72.33
72294;BME280;60632;49.236;8.398;2023-02-04T07:42:45;102326.34;;;9.25;72.35
72294;BME280;60632;49.236;8.398;2023-02-04T07:45:45;102333.91;;;9.30;72.36
72294;BME280;60632;49.236;8.398;2023-02-04T07:48:45;102345.25;;;9.33;72.30
72294;BME280;60632;49.236;8.398;2023-02-04T07:51:46;102353.19;;;9.35;72.32
72294;BME280;60632;49.236;8.398;2023-02-04T07:54:46;102359.28;;;9.37;72.12
72294;BME280;60632;49.236;8.398;2023-02-04T07:57:46;102369.06;;;9.38;72.29
72294;BME280;60632;49.236;8.398;2023-02-04T08:00:47;102368.38;;;9.36;72.37
72294;BME280;60632;49.236;8.398;2023-02-04T08:03:47;102369.06;;;9.38;72.44
72294;BME280;60632;49.236;8.398;2023-02-04T08:06:47;102374.13;;;9.41;72.31
72294;BME280;60632;49.236;8.398;2023-02-04T08:09:48;102370.38;;;9.42;72.31
72294;BME280;60632;49.236;8.398;2023-02-04T08:12:48;102379.53;;;9.41;72.40
72294;BME280;60632;49.236;8.398;2023-02-04T08:15:48;102386.81;;;9.41;72.20
72294;BME280;60632;49.236;8.398;2023-02-04T08:18:49;102385.66;;;9.35;72.48
72294;BME280;60632;49.236;8.398;2023-02-04T08:21:49;102382.94;;;9.35;72.52
72294;BME280;60632;49.236;8.398;2023-02-04T08:24:49;102381.91;;;9.36;72.48
72294;BME280;60632;49.236;8.398;2023-02-04T08:27:50;102392.38;;;9.39;72.43
72294;BME280;60632;49.236;8.398;2023-02-04T08:30:50;102393.75;;;9.43;72.30
72294;BME280;60632;49.236;8.398;2023-02-04T08:33:50;102388.34;;;9.43;72.24
72294;BME280;60632;49.236;8.398;2023-02-04T08:36:50;102394.25;;;9.39;72.53
72294;BME280;60632;49.236;8.398;2023-02-04T08:39:51;102403.56;;;9.36;72.83
72294;BME280;60632;49.236;8.398;2023-02-04T08:42:51;102409.31;;;9.33;72.77
72294;BME280;60632;49.236;8.398;2023-02-04T08:45:51;102410.34;;;9.40;72.78
72294;BME280;60632;49.236;8.398;2023-02-04T08:48:52;102414.88;;;9.40;72.88
72294;BME280;60632;49.236;8.398;2023-02-04T08:51:52;102412.84;;;9.42;72.94
72294;BME280;60632;49.236;8.398;2023-02-04T08:54:52;102421.31;;;9.47;72.84
72294;BME280;60632;49.236;8.398;2023-02-04T08:57:52;102426.38;;;9.50;72.81
72294;BME280;60632;49.236;8.398;2023-02-04T09:00:53;102431.94;;;9.48;73.05
72294;BME280;60632;49.236;8.398;2023-02-04T09:03:53;102431.44;;;9.53;72.93
72294;BME280;60632;49.236;8.398;2023-02-04T09:06:53;102431.91;;;9.56;72.92
72294;BME280;60632;49.236;8.398;2023-02-04T09:09:54;102440.81;;;9.65;72.67
72294;BME280;60632;49.236;8.398;2023-02-04T09:12:54;102434.88;;;9.70;72.63
72294;BME280;60632;49.236;8.398;2023-02-04T09:15:55;102440.44;;;9.76;72.66
72294;BME280;60632;49.236;8.398;2023-02-04T09:18:55;102445.66;;;9.78;72.77
72294;BME280;60632;49.236;8.398;2023-02-04T09:21:57;102443.63;;;9.80;72.68
72294;BME280;60632;49.236;8.398;2023-02-04T09:24:58;102445.00;;;9.76;72.73
72294;BME280;60632;49.236;8.398;2023-02-04T09:27:58;102442.59;;;9.81;72.62
72294;BME280;60632;49.236;8.398;2023-02-04T09:30:58;102448.81;;;9.90;72.70
72294;BME280;60632;49.236;8.398;2023-02-04T09:33:59;102443.19;;;9.99;72.51
72294;BME280;60632;49.236;8.398;2023-02-04T09:36:59;102451.06;;;10.09;72.33
72294;BME280;60632;49.236;8.398;2023-02-04T09:40:00;102458.66;;;10.14;71.98
72294;BME280;60632;49.236;8.398;2023-02-04T09:43:00;102450.53;;;10.14;72.27
72294;BME280;60632;49.236;8.398;2023-02-04T09:46:01;102453.91;;;10.16;72.19
72294;BME280;60632;49.236;8.398;2023-02-04T09:49:02;102456.94;;;10.21;72.04
72294;BME280;60632;49.236;8.398;2023-02-04T09:52:03;102456.56;;;10.24;72.07
72294;BME280;60632;49.236;8.398;2023-02-04T09:55:04;102459.59;;;10.29;72.04
72294;BME280;60632;49.236;8.398;2023-02-04T09:58:18;102463.19;;;10.21;72.27
72294;BME280;60632;49.236;8.398;2023-02-04T10:01:19;102463.41;;;10.12;72.58
72294;BME280;60632;49.236;8.398;2023-02-04T10:04:19;102469.56;;;10.05;72.67
72294;BME280;60632;49.236;8.398;2023-02-04T10:07:21;102474.97;;;10.05;72.58
72294;BME280;60632;49.236;8.398;2023-02-04T10:10:24;102485.81;;;10.05;72.77
72294;BME280;60632;49.236;8.398;2023-02-04T10:13:29;102490.88;;;10.09;72.74
72294;BME280;60632;49.236;8.398;2023-02-04T10:16:33;102487.44;;;10.15;72.59
72294;BME280;60632;49.236;8.398;2023-02-04T10:19:35;102483.66;;;10.24;72.45
72294;BME280;60632;49.236;8.398;2023-02-04T10:22:35;102484.94;;;10.36;72.44
72294;BME280;60632;49.236;8.398;2023-02-04T10:25:36;102486.09;;;10.42;72.24
72294;BME280;60632;49.236;8.398;2023-02-04T10:28:36;102484.06;;;10.44;72.10
72294;BME280;60632;49.236;8.398;2023-02-04T10:31:39;102488.47;;;10.45;72.33
72294;BME280;60632;49.236;8.398;2023-02-04T10:34:40;102487.53;;;10.52;72.22
72294;BME280;60632;49.236;8.398;2023-02-04T10:37:40;102488.41;;;10.53;72.10
72294;BME280;60632;49.236;8.398;2023-02-04T10:40:41;102494.31;;;10.57;72.28
72294;BME280;60632;49.236;8.398;2023-02-04T10:43:41;102496.53;;;10.53;72.46
72294;BME280;60632;49.236;8.398;2023-02-04T10:46:42;102495.50;;;10.54;72.35
72294;BME280;60632;49.236;8.398;2023-02-04T10:49:56;102492.25;;;10.59;72.19
72294;BME280;60632;49.236;8.398;2023-02-04T10:52:58;102487.78;;;10.66;72.21
72294;BME280;60632;49.236;8.398;2023-02-04T10:56:19;102480.88;;;10.78;72.02
72294;BME280;60632;49.236;8.398;2023-02-04T10:59:21;102490.28;;;10.90;71.68
72294;BME280;60632;49.236;8.398;2023-02-04T11:05:42;102477.84;;;10.96;71.94
72294;BME280;60632;49.236;8.398;2023-02-04T11:08:42;102490.47;;;11.04;71.79
72294;BME280;60632;49.236;8.398;2023-02-04T11:11:46;102488.63;;;11.19;71.57
72294;BME280;60632;49.236;8.398;2023-02-04T11:14:54;102492.97;;;11.28;71.24
72294;BME280;60632;49.236;8.398;2023-02-04T11:18:01;102491.00;;;11.37;71.30
72294;BME280;60632;49.236;8.398;2023-02-04T11:21:02;102492.88;;;11.51;71.01
72294;BME280;60632;49.236;8.398;2023-02-04T11:27:21;102495.19;;;11.69;70.74
72294;BME280;60632;49.236;8.398;2023-02-04T11:30:21;102482.63;;;11.68;70.96
72294;BME280;60632;49.236;8.398;2023-02-04T11:33:22;102490.25;;;11.73;70.87
72294;BME280;60632;49.236;8.398;2023-02-04T11:36:23;102480.28;;;11.80;70.72
72294;BME280;60632;49.236;8.398;2023-02-04T11:39:27;102480.75;;;11.83;70.73
72294;BME280;60632;49.236;8.398;2023-02-04T11:45:42;102475.22;;;11.77;70.98
72294;BME280;60632;49.236;8.398;2023-02-04T11:48:42;102480.97;;;11.67;70.98
72294;BME280;60632;49.236;8.398;2023-02-04T11:51:43;102487.16;;;11.61;71.22
72294;BME280;60632;49.236;8.398;2023-02-04T11:54:51;102485.47;;;11.60;71.12
72294;BME280;60632;49.236;8.398;2023-02-04T11:57:53;102484.13;;;11.56;70.94
72294;BME280;60632;49.236;8.398;2023-02-04T12:00:53;102478.44;;;11.51;71.17
72294;BME280;60632;49.236;8.398;2023-02-04T12:03:57;102478.25;;;11.52;71.14
72294;BME280;60632;49.236;8.398;2023-02-04T12:07:00;102480.78;;;11.54;71.24
72294;BME280;60632;49.236;8.398;2023-02-04T12:10:12;102484.22;;;11.62;71.06
72294;BME280;60632;49.236;8.398;2023-02-04T12:13:15;102483.75;;;11.59;71.05
72294;BME280;60632;49.236;8.398;2023-02-04T12:16:16;102486.69;;;11.57;71.18
72294;BME280;60632;49.236;8.398;2023-02-04T12:19:16;102482.63;;;11.68;70.96
72294;BME280;60632;49.236;8.398;2023-02-04T12:22:17;102475.31;;;11.83;70.68
72294;BME280;60632;49.236;8.398;2023-02-04T12:25:17;102483.66;;;11.97;70.39
72294;BME280;60632;49.236;8.398;2023-02-04T12:28:19;102479.03;;;12.12;70.19
72294;BME280;60632;49.236;8.398;2023-02-04T12:31:19;102483.44;;;12.34;69.88
72294;BME280;60632;49.236;8.398;2023-02-04T12:34:19;102480.25;;;12.52;69.63
72294;BME280;60632;49.236;8.398;2023-02-04T12:37:20;102477.09;;;12.70;69.35
72294;BME280;60632;49.236;8.398;2023-02-04T12:40:20;102483.41;;;12.77;69.14
72294;BME280;60632;49.236;8.398;2023-02-04T12:43:21;102480.97;;;12.82;69.14
72294;BME280;60632;49.236;8.398;2023-02-04T12:46:21;102482.69;;;12.90;69.02
72294;BME280;60632;49.236;8.398;2023-02-04T12:49:22;102486.50;;;12.96;69.00
72294;BME280;60632;49.236;8.398;2023-02-04T12:52:23;102478.56;;;13.01;68.94
72294;BME280;60632;49.236;8.398;2023-02-04T12:55:24;102484.28;;;13.06;68.88
72294;BME280;60632;49.236;8.398;2023-02-04T12:58:25;102491.16;;;13.02;68.92
72294;BME280;60632;49.236;8.398;2023-02-04T13:01:25;102484.19;;;12.93;69.01
72294;BME280;60632;49.236;8.398;2023-02-04T13:04:28;102488.78;;;12.92;69.08
72294;BME280;60632;49.236;8.398;2023-02-04T13:07:28;102497.13;;;12.91;69.32
72294;BME280;60632;49.236;8.398;2023-02-04T13:10:28;102497.22;;;13.04;69.04
72294;BME280;60632;49.236;8.398;2023-02-04T13:13:29;102481.63;;;13.19;68.69
72294;BME280;60632;49.236;8.398;2023-02-04T13:16:29;102487.69;;;13.43;68.32
72294;BME280;60632;49.236;8.398;2023-02-04T13:19:29;102492.38;;;13.62;68.21
72294;BME280;60632;49.236;8.398;2023-02-04T13:22:31;102489.31;;;13.78;67.89
72294;BME280;60632;49.236;8.398;2023-02-04T13:25:31;102490.03;;;13.94;67.69
72294;BME280;60632;49.236;8.398;2023-02-04T13:28:32;102490.03;;;13.94;67.73
72294;BME280;60632;49.236;8.398;2023-02-04T13:31:32;102495.44;;;13.87;67.90
72294;BME280;60632;49.236;8.398;2023-02-04T13:34:32;102496.66;;;13.78;68.05
72294;BME280;60632;49.236;8.398;2023-02-04T13:37:32;102492.47;;;13.82;68.00
72294;BME280;60632;49.236;8.398;2023-02-04T13:40:33;102489.53;;;13.77;67.93
72294;BME280;60632;49.236;8.398;2023-02-04T13:43:33;102485.28;;;13.61;68.22
72294;BME280;60632;49.236;8.398;2023-02-04T13:46:33;102484.91;;;13.36;68.51
72294;BME280;60632;49.236;8.398;2023-02-04T13:49:34;102485.63;;;13.23;68.75
72294;BME280;60632;49.236;8.398;2023-02-04T13:52:34;102487.47;;;13.16;68.66
72294;BME280;60632;49.236;8.398;2023-02-04T13:55:34;102487.91;;;13.20;68.63
72294;BME280;60632;49.236;8.398;2023-02-04T13:58:35;102494.72;;;13.30;68.57
72294;BME280;60632;49.236;8.398;2023-02-04T14:01:35;102488.53;;;13.50;68.24
72294;BME280;60632;49.236;8.398;2023-02-04T14:04:36;102491.78;;;13.60;68.05
72294;BME280;60632;49.236;8.398;2023-02-04T14:07:36;102495.78;;;13.71;67.96
72294;BME280;60632;49.236;8.398;2023-02-04T14:10:36;102496.28;;;13.88;67.83
72294;BME280;60632;49.236;8.398;2023-02-04T14:13:36;102506.38;;;13.94;67.88
72294;BME280;60632;49.236;8.398;2023-02-04T14:16:37;102503.06;;;14.05;67.77
72294;BME280;60632;49.236;8.398;2023-02-04T14:19:37;102500.19;;;14.27;67.46
72294;BME280;60632;49.236;8.398;2023-02-04T14:22:37;102508.19;;;14.41;67.07
72294;BME280;60632;49.236;8.398;2023-02-04T14:25:38;102512.41;;;14.44;67.23
72294;BME280;60632;49.236;8.398;2023-02-04T14:28:38;102509.88;;;14.49;67.18
72294;BME280;60632;49.236;8.398;2023-02-04T14:31:39;102511.63;;;14.63;67.12
72294;BME280;60632;49.236;8.398;2023-02-04T14:34:39;102507.44;;;14.81;66.99
72294;BME280;60632;49.236;8.398;2023-02-04T14:37:39;102512.88;;;14.87;67.04
72294;BME280;60632;49.236;8.398;2023-02-04T14:40:40;102509.53;;;14.92;66.93
72294;BME280;60632;49.236;8.398;2023-02-04T14:43:40;102508.06;;;14.83;67.24
72294;BME280;60632;49.236;8.398;2023-02-04T14:46:41;102504.50;;;14.89;67.21
72294;BME280;60632;49.236;8.398;2023-02-04T14:49:43;102512.47;;;14.97;67.26
72294;BME280;60632;49.236;8.398;2023-02-04T14:52:43;102501.56;;;14.97;67.38
72294;BME280;60632;49.236;8.398;2023-02-04T14:55:44;102498.38;;;15.13;67.39
72294;BME280;60632;49.236;8.398;2023-02-04T14:58:44;102506.13;;;15.30;67.46
72294;BME280;60632;49.236;8.398;2023-02-04T15:01:44;102504.38;;;15.69;67.30
72294;BME280;60632;49.236;8.398;2023-02-04T15:04:45;102504.06;;;16.35;66.37
72294;BME280;60632;49.236;8.398;2023-02-04T15:07:45;102498.09;;;17.01;65.54
72294;BME280;60632;49.236;8.398;2023-02-04T15:10:45;102507.44;;;17.37;64.94
72294;BME280;60632;49.236;8.398;2023-02-04T15:13:46;102510.00;;;17.57;65.18
72294;BME280;60632;49.236;8.398;2023-02-04T15:16:46;102505.69;;;17.86;64.98
72294;BME280;60632;49.236;8.398;2023-02-04T15:19:47;102517.84;;;18.09;64.99
72294;BME280;60632;49.236;8.398;2023-02-04T15:22:47;102512.28;;;18.27;64.64
72294;BME280;60632;49.236;8.398;2023-02-04T15:25:50;102512.56;;;18.37;64.75
72294;BME280;60632;49.236;8.398;2023-02-04T15:28:51;102514.72;;;18.35;65.06
72294;BME280;60632;49.236;8.398;2023-02-04T15:31:51;102517.84;;;18.39;65.29
72294;BME280;60632;49.236;8.398;2023-02-04T15:34:51;102518.81;;;18.45;65.30
72294;BME280;60632;49.236;8.398;2023-02-04T15:37:52;102515.91;;;18.39;65.52
72294;BME280;60632;49.236;8.398;2023-02-04T15:40:52;102524.00;;;18.34;65.58
72294;BME280;60632;49.236;8.398;2023-02-04T15:43:52;102524.97;;;18.28;65.80
72294;BME280;60632;49.236;8.398;2023-02-04T15:46:52;102529.31;;;18.17;65.92
72294;BME280;60632;49.236;8.398;2023-02-04T15:49:53;102527.22;;;18.01;65.86
72294;BME280;60632;49.236;8.398;2023-02-04T15:52:53;102529.72;;;17.66;66.41
72294;BME280;60632;49.236;8.398;2023-02-04T15:55:54;102529.97;;;17.21;66.99
72294;BME280;60632;49.236;8.398;2023-02-04T15:58:54;102523.19;;;16.73;67.62
72294;BME280;60632;49.236;8.398;2023-02-04T16:01:55;102532.34;;;16.22;68.03
72294;BME280;60632;49.236;8.398;2023-02-04T16:04:56;102532.53;;;15.76;68.35